01:00
Airports
Links
Donate
Help keep this website running!
PayPal
Bitcoin
METAR
EGLL 230050Z AUTO 28008KT 9999 NCD 14/11 Q1016 NOSIG
Current Weather Conditions at EGLL
VFR 00:50:00 23-05-17
Automated station, no observer
Altimeter:30.00 hg
Temp:14.0°c 57°f
Dew point:11.0°c 52°f
Wind:8 knots, 9.2 mph, 4 m/s, from 280°
Visibility:6.21 statute miles
(CLR) Clear
No significant weather changes expected within 2 hours.
Past METAR reports
VFR 00:20:00 23-05-17
Automated station, no observer
Altimeter:30.00 hg
Temp:14.0°c 57°f
Dew point:11.0°c 52°f
Wind:9 knots, 10.4 mph, 5 m/s, from 280°
Visibility:6.21 statute miles
(CLR) Clear
No significant weather changes expected within 2 hours.
EGLL 230020Z AUTO 28009KT 260V320 9999 NCD 14/11 Q1016 NOSIG
VFR 23:50:00 22-05-17
Automated station, no observer
Altimeter:30.00 hg
Temp:15.0°c 59°f
Dew point:11.0°c 52°f
Wind:5 knots, 5.8 mph, 3 m/s, from 280°
Visibility:6.21 statute miles
(CLR) Clear
EGLL 222350Z AUTO 28005KT 250V320 9999 NCD 15/11 Q1016
VFR 23:20:00 22-05-17
Automated station, no observer
Altimeter:30.00 hg
Temp:16.0°c 61°f
Dew point:11.0°c 52°f
Wind:11 knots, 12.7 mph, 6 m/s, from 260°
Visibility:6.21 statute miles
(CLR) Clear
No significant weather changes expected within 2 hours.
EGLL 222320Z AUTO 26011KT 9999 NCD 16/11 Q1016 NOSIG
VFR 22:50:00 22-05-17
Automated station, no observer
Altimeter:29.97 hg
Temp:16.0°c 61°f
Dew point:11.0°c 52°f
Wind:8 knots, 9.2 mph, 4 m/s, from 250°
Visibility:6.21 statute miles
(CLR) Clear
No significant weather changes expected within 2 hours.
EGLL 222250Z AUTO 25008KT 9999 NCD 16/11 Q1015 NOSIG
VFR 22:20:00 22-05-17
Automated station, no observer
Altimeter:29.97 hg
Temp:17.0°c 63°f
Dew point:11.0°c 52°f
Wind:7 knots, 8.1 mph, 4 m/s, from 250°
Visibility:6.21 statute miles
(CLR) Clear
EGLL 222220Z AUTO 25007KT 9999 NCD 17/11 Q1015
VFR 21:50:00 22-05-17
Automated station, no observer
Altimeter:29.97 hg
Temp:17.0°c 63°f
Dew point:11.0°c 52°f
Wind:8 knots, 9.2 mph, 4 m/s, from 230°
Visibility:6.21 statute miles
(CLR) Clear
No significant weather changes expected within 2 hours.
EGLL 222150Z AUTO 23008KT 9999 NCD 17/11 Q1015 NOSIG
TAF
TAF EGLL 222253Z 2300/2406 28009KT CAVOK TEMPO 2309/2318 BKN032 PROB30 TEMPO 2404/2406 8000
Forecast at EGLL
00:00 23-05-17 to 06:00 24-05-17
NSW
Wind:9 Knots from 280°
Visibility:6.21 statute miles
NSC
TEMPO 09:00 23-05-17 to 18:00 23-05-17
3200BKN Broken
TEMPO 04:00 24-05-17 to 06:00 24-05-17
30%
Visibility:4.97 statute miles